Albany, New York
Current Conditions -  °F | °C
As of 4:51 PM on Monday 20 Oct 2014 (Local Time) from KALB Reporting Station
Broken Clouds Broken Clouds  
Wind Chill: 52°   Ceiling: 8000
Heat Index: 52°   Visibility: 10mi
Dew Point: 34°   Wind: 13mph
Humidity: 50%   Direction: 180°S
Pressure: 29.94"   Gusts: NA
Location:  42.65°N, 73.75°W
Report Text: KALB 202051Z 18011KT 10SM FEW070 BKN080 BKN100 BKN200 11/01 A2994 RMK AO2 SLP141 T01110011 56008
Loading
Personal Weather Stations






























Interactive Weather Map New forecast layout! Learn more

10-Day Weather Forecast

Advertisements
Track Severe Weather on mobile